ROMMA est une association bénévole à but non lucratif. Votre soutien est indispensable : ADHERER à ROMMA ou FAIRE un DON

Chindrieux - (73, Savoie)

Chautagne (260 m)   Longitude: 05°50' E   Latitude: 45°49' N Station partenaire n°74
 

Détail journalier du     <<     >>

Température Precipitation Humidité Pression Vent Dir Rafale Dir. rafale Ensol.
Heure (°C) (mm) (%) (hPa) (km/h) (km/h) (min)
01:00 7.708110092NE6NE0
02:00 6.1085100905NE0
03:00 4.9089100903NE0
04:00 4.9091100905NE0
05:00 3.9091100905NE0
06:00 3.7091100905NE0
07:00 3.1092100902NE0
08:00 2.9093100905NE0
09:00 3.1094101002NE0
10:00 5.1095100902NE0
11:00 8.808910092NE6NE40
12:00 12.307110082S11ESE60
13:00 14.006610074SSE11SSE60
14:00 16.406110064SSE15SO50
15:00 17.605010067SE16SO50
16:00 17.805010057O16ONO50
17:00 17.604810042SSE10SSE20
18:00 17.404410046O16NO40
19:00 16.705110049NNO24N30
20:00 15.1055100511N26NNE20
21:00 14.3056100514N27N0
22:00 13.606110069N31N0
23:00 11.906510062SSO10SE0
minuit 11.806910072NO10N0

Graphique du 09-04-2019

 

Serveur OMMA